This is the latest recevied weather packets stored in our database for station/object EA5BZ. If no packets are shown the sender has not sent any weather packets the latest 10 day(s).
| Time | Temp. | Humidity | Pressure | Rain* | Wind** | Luminosity | Snow |
|---|---|---|---|---|---|---|---|
| 1777147817 | 15.56° C | 86% | 1018.7 hPa | 0 mm | - | - | - |
| 1777146016 | 15.56° C | 86% | 1018.5 hPa | 0 mm | - | - | - |
| 1777145416 | 15.56° C | 86% | 1018.1 hPa | 0 mm | - | - | - |
| 1777144516 | 15.56° C | 86% | 1018.1 hPa | 0 mm | - | - | - |
| 1777142716 | 15.56° C | 86% | 1018 hPa | 0.25 mm | - | - | - |
| 1777140616 | 15.56° C | 86% | 1017.6 hPa | 0 mm | - | - | - |
| 1777138216 | 16.11° C | 86% | 1017.9 hPa | 0.25 mm | - | - | - |
| 1777137916 | 16.11° C | 86% | 1017.8 hPa | 0.25 mm | - | - | - |
| 1777134016 | 16.11° C | 85% | 1017.7 hPa | 0 mm | - | - | - |
| 1777133116 | 16.67° C | 84% | 1017.5 hPa | 0.25 mm | - | - | - |
| 1777131916 | 16.67° C | 83% | 1017.6 hPa | 0.25 mm | - | - | - |
| 1777129216 | 16.67° C | 80% | 1017.6 hPa | 0 mm | - | - | - |
| 1777128316 | 17.22° C | 80% | 1017.9 hPa | 0 mm | - | - | - |
| 1777122016 | 17.22° C | 70% | 1018.8 hPa | 0 mm | - | - | - |
| 1777121416 | 17.22° C | 68% | 1018.8 hPa | 0 mm | - | - | - |
| 1777119916 | 17.78° C | 66% | 1018.9 hPa | 0 mm | - | - | - |
| 1777118416 | 17.78° C | 66% | 1019 hPa | 0 mm | - | - | - |
| 1777116916 | 18.33° C | 66% | 1019.1 hPa | 0 mm | - | - | - |
| 1777114518 | 17.78° C | 63% | 1019.2 hPa | 0 mm | - | - | - |
| 1777113618 | 17.78° C | 61% | 1019.4 hPa | 0 mm | - | - | - |
| 1777113017 | 17.78° C | 61% | 1019.5 hPa | 0 mm | - | - | - |
| 1777109717 | 17.22° C | 66% | 1019.5 hPa | 0 mm | - | - | - |
| 1777108817 | 16.67° C | 68% | 1019.4 hPa | 0 mm | - | - | - |
| 1777104937 | 16.11° C | 68% | 1019.4 hPa | 0 mm | - | - | - |
| 1777103717 | 16.11° C | 66% | 1019.4 hPa | 0 mm | - | - | - |
* Rain latest hour (hover to see other rain measurements)
** Current wind speed in m/s (hover to see current wind gust speed)